sensor_id;sensor_type;location;lat;lon;timestamp;P1;durP1;ratioP1;P2;durP2;ratioP2
78732;SDS011;68056;52.530;5.454;2023-06-26T00:00:14;6.13;;;5.32;;
78732;SDS011;68056;52.530;5.454;2023-06-26T00:02:40;6.82;;;6.13;;
78732;SDS011;68056;52.530;5.454;2023-06-26T00:05:06;7.80;;;7.00;;
78732;SDS011;68056;52.530;5.454;2023-06-26T00:07:32;6.80;;;5.95;;
78732;SDS011;68056;52.530;5.454;2023-06-26T00:12:25;5.53;;;4.88;;
78732;SDS011;68056;52.530;5.454;2023-06-26T00:14:51;7.07;;;6.18;;
78732;SDS011;68056;52.530;5.454;2023-06-26T00:17:17;6.18;;;5.57;;
78732;SDS011;68056;52.530;5.454;2023-06-26T00:19:43;8.63;;;6.32;;
78732;SDS011;68056;52.530;5.454;2023-06-26T00:22:08;7.05;;;6.03;;
78732;SDS011;68056;52.530;5.454;2023-06-26T00:24:34;7.47;;;6.38;;
78732;SDS011;68056;52.530;5.454;2023-06-26T00:27:00;7.75;;;5.90;;
78732;SDS011;68056;52.530;5.454;2023-06-26T00:29:25;6.82;;;6.22;;
78732;SDS011;68056;52.530;5.454;2023-06-26T00:31:51;7.28;;;6.20;;
78732;SDS011;68056;52.530;5.454;2023-06-26T00:34:16;6.07;;;5.47;;
78732;SDS011;68056;52.530;5.454;2023-06-26T00:36:42;7.00;;;6.30;;
78732;SDS011;68056;52.530;5.454;2023-06-26T00:39:08;7.32;;;5.88;;
78732;SDS011;68056;52.530;5.454;2023-06-26T00:41:35;6.38;;;5.78;;
78732;SDS011;68056;52.530;5.454;2023-06-26T00:46:27;5.55;;;5.03;;
78732;SDS011;68056;52.530;5.454;2023-06-26T00:48:53;5.68;;;5.07;;
78732;SDS011;68056;52.530;5.454;2023-06-26T00:53:45;7.22;;;5.30;;
78732;SDS011;68056;52.530;5.454;2023-06-26T00:56:11;7.00;;;5.43;;
78732;SDS011;68056;52.530;5.454;2023-06-26T00:58:37;5.50;;;4.95;;
78732;SDS011;68056;52.530;5.454;2023-06-26T01:01:02;8.05;;;4.95;;
78732;SDS011;68056;52.530;5.454;2023-06-26T01:03:30;5.70;;;5.03;;
78732;SDS011;68056;52.530;5.454;2023-06-26T01:05:56;5.13;;;4.70;;
78732;SDS011;68056;52.530;5.454;2023-06-26T01:08:23;6.50;;;5.47;;
78732;SDS011;68056;52.530;5.454;2023-06-26T01:10:50;6.22;;;4.88;;
78732;SDS011;68056;52.530;5.454;2023-06-26T01:13:16;6.72;;;5.50;;
78732;SDS011;68056;52.530;5.454;2023-06-26T01:15:42;8.05;;;5.65;;
78732;SDS011;68056;52.530;5.454;2023-06-26T01:18:08;6.03;;;4.75;;
78732;SDS011;68056;52.530;5.454;2023-06-26T01:20:35;6.43;;;5.32;;
78732;SDS011;68056;52.530;5.454;2023-06-26T01:28:32;5.85;;;4.15;;
78732;SDS011;68056;52.530;5.454;2023-06-26T01:31:00;5.45;;;4.32;;
78732;SDS011;68056;52.530;5.454;2023-06-26T01:35:53;4.85;;;4.05;;
78732;SDS011;68056;52.530;5.454;2023-06-26T01:38:20;4.72;;;3.75;;
78732;SDS011;68056;52.530;5.454;2023-06-26T01:40:48;7.28;;;4.45;;
78732;SDS011;68056;52.530;5.454;2023-06-26T01:43:19;5.25;;;3.63;;
78732;SDS011;68056;52.530;5.454;2023-06-26T01:46:06;4.68;;;3.95;;
78732;SDS011;68056;52.530;5.454;2023-06-26T01:48:50;4.03;;;3.63;;
78732;SDS011;68056;52.530;5.454;2023-06-26T01:51:32;7.00;;;4.78;;
78732;SDS011;68056;52.530;5.454;2023-06-26T01:54:05;5.85;;;3.75;;
78732;SDS011;68056;52.530;5.454;2023-06-26T01:56:37;6.60;;;3.95;;
78732;SDS011;68056;52.530;5.454;2023-06-26T01:59:05;5.35;;;3.67;;
78732;SDS011;68056;52.530;5.454;2023-06-26T02:01:32;7.93;;;4.18;;
78732;SDS011;68056;52.530;5.454;2023-06-26T02:03:58;6.93;;;4.18;;
78732;SDS011;68056;52.530;5.454;2023-06-26T02:06:24;5.30;;;3.75;;
78732;SDS011;68056;52.530;5.454;2023-06-26T02:08:50;6.70;;;4.25;;
78732;SDS011;68056;52.530;5.454;2023-06-26T02:11:16;7.00;;;3.97;;
78732;SDS011;68056;52.530;5.454;2023-06-26T02:13:41;5.70;;;4.03;;
78732;SDS011;68056;52.530;5.454;2023-06-26T02:16:07;7.10;;;4.05;;
78732;SDS011;68056;52.530;5.454;2023-06-26T02:18:33;8.60;;;4.57;;
78732;SDS011;68056;52.530;5.454;2023-06-26T02:20:58;6.63;;;4.10;;
78732;SDS011;68056;52.530;5.454;2023-06-26T02:23:24;7.45;;;3.65;;
78732;SDS011;68056;52.530;5.454;2023-06-26T02:25:49;6.63;;;4.85;;
78732;SDS011;68056;52.530;5.454;2023-06-26T02:28:15;4.68;;;3.50;;
78732;SDS011;68056;52.530;5.454;2023-06-26T02:30:40;5.72;;;4.63;;
78732;SDS011;68056;52.530;5.454;2023-06-26T02:33:06;5.47;;;4.22;;
78732;SDS011;68056;52.530;5.454;2023-06-26T02:35:31;6.00;;;4.00;;
78732;SDS011;68056;52.530;5.454;2023-06-26T02:37:58;7.40;;;4.07;;
78732;SDS011;68056;52.530;5.454;2023-06-26T02:40:25;8.27;;;4.47;;
78732;SDS011;68056;52.530;5.454;2023-06-26T02:42:51;7.97;;;4.50;;
78732;SDS011;68056;52.530;5.454;2023-06-26T02:45:16;6.00;;;4.20;;
78732;SDS011;68056;52.530;5.454;2023-06-26T02:47:42;8.80;;;4.25;;
78732;SDS011;68056;52.530;5.454;2023-06-26T02:50:08;9.02;;;4.40;;
78732;SDS011;68056;52.530;5.454;2023-06-26T02:52:34;7.32;;;3.88;;
78732;SDS011;68056;52.530;5.454;2023-06-26T02:54:59;7.32;;;3.90;;
78732;SDS011;68056;52.530;5.454;2023-06-26T02:57:25;9.68;;;4.63;;
78732;SDS011;68056;52.530;5.454;2023-06-26T02:59:50;9.93;;;4.45;;
78732;SDS011;68056;52.530;5.454;2023-06-26T03:02:16;6.85;;;4.43;;
78732;SDS011;68056;52.530;5.454;2023-06-26T03:04:42;10.27;;;4.18;;
78732;SDS011;68056;52.530;5.454;2023-06-26T03:07:08;9.52;;;4.30;;
78732;SDS011;68056;52.530;5.454;2023-06-26T03:09:33;8.48;;;4.35;;
78732;SDS011;68056;52.530;5.454;2023-06-26T03:11:59;10.60;;;4.55;;
78732;SDS011;68056;52.530;5.454;2023-06-26T03:14:25;8.23;;;4.05;;
78732;SDS011;68056;52.530;5.454;2023-06-26T03:16:52;10.10;;;4.50;;
78732;SDS011;68056;52.530;5.454;2023-06-26T03:19:17;12.65;;;4.47;;
78732;SDS011;68056;52.530;5.454;2023-06-26T03:21:43;12.00;;;4.53;;
78732;SDS011;68056;52.530;5.454;2023-06-26T03:24:09;8.50;;;4.07;;
78732;SDS011;68056;52.530;5.454;2023-06-26T03:26:35;10.52;;;4.32;;
78732;SDS011;68056;52.530;5.454;2023-06-26T03:29:00;12.65;;;4.70;;
78732;SDS011;68056;52.530;5.454;2023-06-26T03:31:26;10.73;;;4.65;;
78732;SDS011;68056;52.530;5.454;2023-06-26T03:33:51;12.73;;;3.80;;
78732;SDS011;68056;52.530;5.454;2023-06-26T03:36:17;9.98;;;4.78;;
78732;SDS011;68056;52.530;5.454;2023-06-26T03:38:43;14.25;;;4.50;;
78732;SDS011;68056;52.530;5.454;2023-06-26T03:41:08;8.40;;;3.97;;
78732;SDS011;68056;52.530;5.454;2023-06-26T03:43:34;7.18;;;3.85;;
78732;SDS011;68056;52.530;5.454;2023-06-26T03:46:00;8.20;;;3.90;;
78732;SDS011;68056;52.530;5.454;2023-06-26T03:48:25;8.00;;;3.88;;
78732;SDS011;68056;52.530;5.454;2023-06-26T03:50:51;7.70;;;4.45;;
78732;SDS011;68056;52.530;5.454;2023-06-26T03:53:17;5.25;;;2.75;;
78732;SDS011;68056;52.530;5.454;2023-06-26T03:55:42;7.53;;;4.00;;
78732;SDS011;68056;52.530;5.454;2023-06-26T03:58:08;9.07;;;3.83;;
78732;SDS011;68056;52.530;5.454;2023-06-26T04:00:33;9.25;;;3.85;;
78732;SDS011;68056;52.530;5.454;2023-06-26T04:02:59;11.00;;;4.28;;
78732;SDS011;68056;52.530;5.454;2023-06-26T04:05:25;6.72;;;3.50;;
78732;SDS011;68056;52.530;5.454;2023-06-26T04:07:51;5.63;;;3.55;;
78732;SDS011;68056;52.530;5.454;2023-06-26T04:10:17;9.20;;;3.63;;
78732;SDS011;68056;52.530;5.454;2023-06-26T04:12:43;8.25;;;4.25;;
78732;SDS011;68056;52.530;5.454;2023-06-26T04:15:09;6.40;;;3.40;;
78732;SDS011;68056;52.530;5.454;2023-06-26T04:17:34;3.45;;;2.38;;
78732;SDS011;68056;52.530;5.454;2023-06-26T04:20:00;4.65;;;2.60;;
78732;SDS011;68056;52.530;5.454;2023-06-26T04:22:26;4.35;;;2.50;;
78732;SDS011;68056;52.530;5.454;2023-06-26T04:24:51;4.97;;;2.63;;
78732;SDS011;68056;52.530;5.454;2023-06-26T04:27:17;4.22;;;2.53;;
78732;SDS011;68056;52.530;5.454;2023-06-26T04:29:43;3.88;;;2.60;;
78732;SDS011;68056;52.530;5.454;2023-06-26T04:32:09;5.28;;;2.00;;
78732;SDS011;68056;52.530;5.454;2023-06-26T04:34:35;3.50;;;1.83;;
78732;SDS011;68056;52.530;5.454;2023-06-26T04:37:06;3.35;;;2.20;;
78732;SDS011;68056;52.530;5.454;2023-06-26T04:39:31;2.40;;;1.98;;
78732;SDS011;68056;52.530;5.454;2023-06-26T04:41:57;3.42;;;1.90;;
78732;SDS011;68056;52.530;5.454;2023-06-26T04:44:23;2.08;;;1.67;;
78732;SDS011;68056;52.530;5.454;2023-06-26T04:46:49;4.18;;;2.10;;
78732;SDS011;68056;52.530;5.454;2023-06-26T04:49:16;4.75;;;1.98;;
78732;SDS011;68056;52.530;5.454;2023-06-26T04:51:42;2.65;;;1.63;;
78732;SDS011;68056;52.530;5.454;2023-06-26T04:54:08;3.00;;;1.63;;
78732;SDS011;68056;52.530;5.454;2023-06-26T04:56:35;2.95;;;1.75;;
78732;SDS011;68056;52.530;5.454;2023-06-26T04:59:02;6.60;;;2.33;;
78732;SDS011;68056;52.530;5.454;2023-06-26T05:01:28;3.53;;;1.60;;
78732;SDS011;68056;52.530;5.454;2023-06-26T05:03:58;5.15;;;2.05;;
78732;SDS011;68056;52.530;5.454;2023-06-26T05:06:24;2.13;;;1.38;;
78732;SDS011;68056;52.530;5.454;2023-06-26T05:08:49;4.03;;;1.88;;
78732;SDS011;68056;52.530;5.454;2023-06-26T05:11:15;5.18;;;1.67;;
78732;SDS011;68056;52.530;5.454;2023-06-26T05:13:41;1.75;;;1.25;;
78732;SDS011;68056;52.530;5.454;2023-06-26T05:16:08;5.63;;;1.70;;
78732;SDS011;68056;52.530;5.454;2023-06-26T05:18:34;2.10;;;1.42;;
78732;SDS011;68056;52.530;5.454;2023-06-26T05:21:00;3.10;;;1.42;;
78732;SDS011;68056;52.530;5.454;2023-06-26T05:23:26;3.33;;;2.03;;
78732;SDS011;68056;52.530;5.454;2023-06-26T05:25:55;2.35;;;1.60;;
78732;SDS011;68056;52.530;5.454;2023-06-26T05:28:21;3.00;;;1.30;;
78732;SDS011;68056;52.530;5.454;2023-06-26T05:30:49;6.05;;;2.13;;
78732;SDS011;68056;52.530;5.454;2023-06-26T05:33:18;3.45;;;1.70;;
78732;SDS011;68056;52.530;5.454;2023-06-26T05:35:46;3.30;;;1.63;;
78732;SDS011;68056;52.530;5.454;2023-06-26T05:38:13;2.20;;;1.48;;
78732;SDS011;68056;52.530;5.454;2023-06-26T05:40:40;4.28;;;1.80;;
78732;SDS011;68056;52.530;5.454;2023-06-26T05:43:06;3.35;;;1.60;;
78732;SDS011;68056;52.530;5.454;2023-06-26T05:45:32;1.63;;;1.23;;
78732;SDS011;68056;52.530;5.454;2023-06-26T05:47:58;3.58;;;1.50;;
78732;SDS011;68056;52.530;5.454;2023-06-26T05:50:24;2.60;;;1.60;;
78732;SDS011;68056;52.530;5.454;2023-06-26T05:52:50;1.85;;;1.58;;
78732;SDS011;68056;52.530;5.454;2023-06-26T05:55:17;1.63;;;1.25;;
78732;SDS011;68056;52.530;5.454;2023-06-26T05:57:43;2.17;;;1.38;;
78732;SDS011;68056;52.530;5.454;2023-06-26T06:00:09;2.47;;;1.45;;
78732;SDS011;68056;52.530;5.454;2023-06-26T06:02:39;2.92;;;1.25;;
78732;SDS011;68056;52.530;5.454;2023-06-26T06:05:06;2.55;;;1.50;;
78732;SDS011;68056;52.530;5.454;2023-06-26T06:07:32;3.08;;;1.52;;
78732;SDS011;68056;52.530;5.454;2023-06-26T06:09:58;4.07;;;1.58;;
78732;SDS011;68056;52.530;5.454;2023-06-26T06:12:24;2.65;;;1.73;;
78732;SDS011;68056;52.530;5.454;2023-06-26T06:14:51;5.55;;;1.73;;
78732;SDS011;68056;52.530;5.454;2023-06-26T06:17:17;2.83;;;1.55;;
78732;SDS011;68056;52.530;5.454;2023-06-26T06:19:42;3.22;;;1.60;;
78732;SDS011;68056;52.530;5.454;2023-06-26T06:22:08;3.58;;;1.40;;
78732;SDS011;68056;52.530;5.454;2023-06-26T06:24:33;2.63;;;1.63;;
78732;SDS011;68056;52.530;5.454;2023-06-26T06:26:59;3.80;;;1.67;;
78732;SDS011;68056;52.530;5.454;2023-06-26T06:29:24;3.15;;;1.70;;
78732;SDS011;68056;52.530;5.454;2023-06-26T06:31:50;2.30;;;1.40;;
78732;SDS011;68056;52.530;5.454;2023-06-26T06:34:16;3.30;;;1.45;;
78732;SDS011;68056;52.530;5.454;2023-06-26T06:36:42;3.58;;;1.50;;
78732;SDS011;68056;52.530;5.454;2023-06-26T06:39:07;2.58;;;1.40;;
78732;SDS011;68056;52.530;5.454;2023-06-26T06:41:33;5.13;;;1.70;;
78732;SDS011;68056;52.530;5.454;2023-06-26T06:43:59;3.40;;;1.55;;
78732;SDS011;68056;52.530;5.454;2023-06-26T06:46:24;4.32;;;1.60;;
78732;SDS011;68056;52.530;5.454;2023-06-26T06:48:53;3.25;;;1.83;;
78732;SDS011;68056;52.530;5.454;2023-06-26T06:51:19;3.83;;;1.58;;
78732;SDS011;68056;52.530;5.454;2023-06-26T06:53:44;3.95;;;1.70;;
78732;SDS011;68056;52.530;5.454;2023-06-26T06:56:10;3.20;;;1.77;;
78732;SDS011;68056;52.530;5.454;2023-06-26T06:58:35;3.05;;;1.70;;
78732;SDS011;68056;52.530;5.454;2023-06-26T07:01:01;4.88;;;1.67;;
78732;SDS011;68056;52.530;5.454;2023-06-26T07:03:30;3.88;;;1.70;;
78732;SDS011;68056;52.530;5.454;2023-06-26T07:05:55;3.15;;;1.90;;
78732;SDS011;68056;52.530;5.454;2023-06-26T07:08:21;2.72;;;1.80;;
78732;SDS011;68056;52.530;5.454;2023-06-26T07:10:46;5.72;;;2.03;;
78732;SDS011;68056;52.530;5.454;2023-06-26T07:13:12;8.35;;;1.73;;
78732;SDS011;68056;52.530;5.454;2023-06-26T07:15:38;2.92;;;1.80;;
78732;SDS011;68056;52.530;5.454;2023-06-26T07:18:03;3.70;;;1.70;;
78732;SDS011;68056;52.530;5.454;2023-06-26T07:20:29;2.45;;;1.85;;
78732;SDS011;68056;52.530;5.454;2023-06-26T07:22:55;2.30;;;1.55;;
78732;SDS011;68056;52.530;5.454;2023-06-26T07:25:20;3.20;;;1.98;;
78732;SDS011;68056;52.530;5.454;2023-06-26T07:27:46;4.10;;;2.05;;
78732;SDS011;68056;52.530;5.454;2023-06-26T07:30:11;4.38;;;1.90;;
78732;SDS011;68056;52.530;5.454;2023-06-26T07:32:37;3.67;;;2.08;;
78732;SDS011;68056;52.530;5.454;2023-06-26T07:35:04;4.18;;;2.15;;
78732;SDS011;68056;52.530;5.454;2023-06-26T07:37:30;2.80;;;1.73;;
78732;SDS011;68056;52.530;5.454;2023-06-26T07:39:55;5.90;;;2.20;;
78732;SDS011;68056;52.530;5.454;2023-06-26T07:42:21;5.50;;;2.13;;
78732;SDS011;68056;52.530;5.454;2023-06-26T07:44:46;3.50;;;1.77;;
78732;SDS011;68056;52.530;5.454;2023-06-26T07:47:12;3.58;;;1.92;;
78732;SDS011;68056;52.530;5.454;2023-06-26T07:49:38;3.72;;;1.92;;
78732;SDS011;68056;52.530;5.454;2023-06-26T07:52:04;4.55;;;1.83;;
78732;SDS011;68056;52.530;5.454;2023-06-26T07:54:30;5.75;;;2.03;;
78732;SDS011;68056;52.530;5.454;2023-06-26T07:56:57;4.45;;;2.00;;
78732;SDS011;68056;52.530;5.454;2023-06-26T07:59:27;5.75;;;2.00;;
78732;SDS011;68056;52.530;5.454;2023-06-26T08:01:54;2.80;;;1.80;;
78732;SDS011;68056;52.530;5.454;2023-06-26T08:04:23;7.47;;;2.47;;
78732;SDS011;68056;52.530;5.454;2023-06-26T08:06:50;4.85;;;2.20;;
78732;SDS011;68056;52.530;5.454;2023-06-26T08:09:18;6.63;;;2.05;;
78732;SDS011;68056;52.530;5.454;2023-06-26T08:11:44;4.10;;;1.73;;
78732;SDS011;68056;52.530;5.454;2023-06-26T08:14:10;3.47;;;2.28;;
78732;SDS011;68056;52.530;5.454;2023-06-26T08:16:39;5.30;;;1.88;;
78732;SDS011;68056;52.530;5.454;2023-06-26T08:19:05;4.53;;;1.88;;
78732;SDS011;68056;52.530;5.454;2023-06-26T08:21:31;6.40;;;2.25;;
78732;SDS011;68056;52.530;5.454;2023-06-26T08:23:57;4.25;;;2.13;;
78732;SDS011;68056;52.530;5.454;2023-06-26T08:26:22;4.18;;;1.80;;
78732;SDS011;68056;52.530;5.454;2023-06-26T08:28:48;6.72;;;2.00;;
78732;SDS011;68056;52.530;5.454;2023-06-26T08:31:14;3.35;;;1.92;;
78732;SDS011;68056;52.530;5.454;2023-06-26T08:33:39;3.47;;;1.90;;
78732;SDS011;68056;52.530;5.454;2023-06-26T08:36:05;7.00;;;2.30;;
78732;SDS011;68056;52.530;5.454;2023-06-26T08:38:31;5.47;;;2.05;;
78732;SDS011;68056;52.530;5.454;2023-06-26T08:40:56;3.88;;;2.08;;
78732;SDS011;68056;52.530;5.454;2023-06-26T08:43:22;5.25;;;1.92;;
78732;SDS011;68056;52.530;5.454;2023-06-26T08:45:47;3.78;;;1.60;;
78732;SDS011;68056;52.530;5.454;2023-06-26T08:48:17;5.25;;;2.03;;
78732;SDS011;68056;52.530;5.454;2023-06-26T08:50:43;3.63;;;1.67;;
78732;SDS011;68056;52.530;5.454;2023-06-26T08:55:59;5.25;;;2.15;;
78732;SDS011;68056;52.530;5.454;2023-06-26T08:58:26;3.53;;;1.90;;
78732;SDS011;68056;52.530;5.454;2023-06-26T09:00:52;4.72;;;2.38;;
78732;SDS011;68056;52.530;5.454;2023-06-26T09:03:18;3.72;;;1.80;;
78732;SDS011;68056;52.530;5.454;2023-06-26T09:05:44;5.60;;;2.22;;
78732;SDS011;68056;52.530;5.454;2023-06-26T09:08:10;3.17;;;1.48;;
78732;SDS011;68056;52.530;5.454;2023-06-26T09:10:35;3.05;;;1.60;;
78732;SDS011;68056;52.530;5.454;2023-06-26T09:13:02;3.55;;;1.92;;
78732;SDS011;68056;52.530;5.454;2023-06-26T09:15:36;5.35;;;1.67;;
78732;SDS011;68056;52.530;5.454;2023-06-26T09:18:04;2.72;;;1.80;;
78732;SDS011;68056;52.530;5.454;2023-06-26T09:22:58;6.05;;;2.10;;
78732;SDS011;68056;52.530;5.454;2023-06-26T09:27:51;5.10;;;1.45;;
78732;SDS011;68056;52.530;5.454;2023-06-26T09:30:17;2.47;;;1.85;;
78732;SDS011;68056;52.530;5.454;2023-06-26T09:32:44;5.68;;;1.85;;
78732;SDS011;68056;52.530;5.454;2023-06-26T09:35:10;6.07;;;1.80;;
78732;SDS011;68056;52.530;5.454;2023-06-26T09:37:36;6.22;;;1.75;;
78732;SDS011;68056;52.530;5.454;2023-06-26T09:40:03;5.22;;;1.90;;
78732;SDS011;68056;52.530;5.454;2023-06-26T09:42:32;8.60;;;1.90;;
78732;SDS011;68056;52.530;5.454;2023-06-26T09:44:57;3.75;;;1.83;;
78732;SDS011;68056;52.530;5.454;2023-06-26T09:47:23;4.78;;;1.60;;
78732;SDS011;68056;52.530;5.454;2023-06-26T09:49:49;3.72;;;1.90;;
78732;SDS011;68056;52.530;5.454;2023-06-26T09:52:15;5.97;;;1.92;;
78732;SDS011;68056;52.530;5.454;2023-06-26T09:54:42;5.32;;;1.90;;
78732;SDS011;68056;52.530;5.454;2023-06-26T09:57:13;5.38;;;2.00;;
78732;SDS011;68056;52.530;5.454;2023-06-26T09:59:41;5.05;;;1.77;;
78732;SDS011;68056;52.530;5.454;2023-06-26T10:02:10;5.80;;;1.85;;
78732;SDS011;68056;52.530;5.454;2023-06-26T10:04:36;4.32;;;1.40;;
78732;SDS011;68056;52.530;5.454;2023-06-26T10:07:04;3.92;;;1.60;;
78732;SDS011;68056;52.530;5.454;2023-06-26T10:09:33;5.03;;;1.52;;
78732;SDS011;68056;52.530;5.454;2023-06-26T10:12:03;3.55;;;1.55;;
78732;SDS011;68056;52.530;5.454;2023-06-26T10:14:39;2.45;;;1.10;;
78732;SDS011;68056;52.530;5.454;2023-06-26T10:17:10;3.30;;;1.30;;
78732;SDS011;68056;52.530;5.454;2023-06-26T10:19:39;4.45;;;1.30;;
78732;SDS011;68056;52.530;5.454;2023-06-26T10:22:08;2.22;;;1.10;;
78732;SDS011;68056;52.530;5.454;2023-06-26T10:24:36;3.25;;;1.08;;
78732;SDS011;68056;52.530;5.454;2023-06-26T10:27:04;2.15;;;1.13;;
78732;SDS011;68056;52.530;5.454;2023-06-26T10:29:42;2.88;;;0.88;;
78732;SDS011;68056;52.530;5.454;2023-06-26T10:32:29;1.70;;;0.80;;
78732;SDS011;68056;52.530;5.454;2023-06-26T10:34:55;2.80;;;0.85;;
78732;SDS011;68056;52.530;5.454;2023-06-26T10:37:21;2.50;;;1.10;;
78732;SDS011;68056;52.530;5.454;2023-06-26T10:40:10;4.80;;;1.10;;
78732;SDS011;68056;52.530;5.454;2023-06-26T10:42:36;1.05;;;0.80;;
78732;SDS011;68056;52.530;5.454;2023-06-26T10:45:36;3.72;;;1.48;;
78732;SDS011;68056;52.530;5.454;2023-06-26T10:47:58;4.53;;;1.05;;
78732;SDS011;68056;52.530;5.454;2023-06-26T10:50:24;3.40;;;0.90;;
78732;SDS011;68056;52.530;5.454;2023-06-26T10:55:42;3.13;;;1.05;;
78732;SDS011;68056;52.530;5.454;2023-06-26T11:03:37;2.92;;;1.00;;
78732;SDS011;68056;52.530;5.454;2023-06-26T11:06:09;4.60;;;1.25;;
78732;SDS011;68056;52.530;5.454;2023-06-26T11:08:49;5.03;;;1.20;;
78732;SDS011;68056;52.530;5.454;2023-06-26T11:11:17;4.13;;;1.17;;
78732;SDS011;68056;52.530;5.454;2023-06-26T11:13:44;2.95;;;1.13;;
78732;SDS011;68056;52.530;5.454;2023-06-26T11:16:11;3.55;;;0.93;;
78732;SDS011;68056;52.530;5.454;2023-06-26T11:18:38;2.03;;;0.95;;
78732;SDS011;68056;52.530;5.454;2023-06-26T11:21:08;4.18;;;1.20;;
78732;SDS011;68056;52.530;5.454;2023-06-26T11:23:36;3.00;;;1.00;;
78732;SDS011;68056;52.530;5.454;2023-06-26T11:26:17;2.72;;;1.05;;
78732;SDS011;68056;52.530;5.454;2023-06-26T11:28:50;2.35;;;0.90;;
78732;SDS011;68056;52.530;5.454;2023-06-26T11:31:29;2.88;;;1.10;;
78732;SDS011;68056;52.530;5.454;2023-06-26T11:34:06;2.97;;;0.85;;
78732;SDS011;68056;52.530;5.454;2023-06-26T11:36:37;2.55;;;1.20;;
78732;SDS011;68056;52.530;5.454;2023-06-26T11:39:04;2.17;;;1.00;;
78732;SDS011;68056;52.530;5.454;2023-06-26T11:41:31;3.17;;;1.52;;
78732;SDS011;68056;52.530;5.454;2023-06-26T11:46:34;4.47;;;1.48;;
78732;SDS011;68056;52.530;5.454;2023-06-26T11:49:04;7.90;;;1.48;;
78732;SDS011;68056;52.530;5.454;2023-06-26T11:51:31;4.95;;;1.10;;
78732;SDS011;68056;52.530;5.454;2023-06-26T11:53:56;2.22;;;0.98;;
78732;SDS011;68056;52.530;5.454;2023-06-26T11:56:22;5.80;;;1.52;;
78732;SDS011;68056;52.530;5.454;2023-06-26T11:59:07;3.95;;;1.08;;
78732;SDS011;68056;52.530;5.454;2023-06-26T12:04:03;4.20;;;1.08;;
78732;SDS011;68056;52.530;5.454;2023-06-26T12:06:32;2.97;;;1.00;;
78732;SDS011;68056;52.530;5.454;2023-06-26T12:09:03;3.70;;;1.00;;
78732;SDS011;68056;52.530;5.454;2023-06-26T12:11:31;3.55;;;1.30;;
78732;SDS011;68056;52.530;5.454;2023-06-26T12:13:58;2.80;;;1.02;;
78732;SDS011;68056;52.530;5.454;2023-06-26T12:16:24;2.42;;;1.13;;
78732;SDS011;68056;52.530;5.454;2023-06-26T12:18:50;3.53;;;1.30;;
78732;SDS011;68056;52.530;5.454;2023-06-26T12:24:07;4.22;;;1.30;;
78732;SDS011;68056;52.530;5.454;2023-06-26T12:26:34;3.92;;;0.95;;
78732;SDS011;68056;52.530;5.454;2023-06-26T12:29:06;4.25;;;0.95;;
78732;SDS011;68056;52.530;5.454;2023-06-26T12:31:33;7.18;;;1.45;;
78732;SDS011;68056;52.530;5.454;2023-06-26T12:34:00;6.15;;;1.40;;
78732;SDS011;68056;52.530;5.454;2023-06-26T12:36:27;4.13;;;1.00;;
78732;SDS011;68056;52.530;5.454;2023-06-26T12:38:53;6.07;;;1.10;;
78732;SDS011;68056;52.530;5.454;2023-06-26T12:41:19;3.47;;;1.33;;
78732;SDS011;68056;52.530;5.454;2023-06-26T12:43:47;3.28;;;1.38;;
78732;SDS011;68056;52.530;5.454;2023-06-26T12:46:13;5.93;;;1.23;;
78732;SDS011;68056;52.530;5.454;2023-06-26T12:48:39;2.55;;;1.05;;
78732;SDS011;68056;52.530;5.454;2023-06-26T12:51:11;4.82;;;1.17;;
78732;SDS011;68056;52.530;5.454;2023-06-26T12:53:40;2.20;;;1.00;;
78732;SDS011;68056;52.530;5.454;2023-06-26T12:56:07;2.40;;;1.02;;
78732;SDS011;68056;52.530;5.454;2023-06-26T12:58:33;2.03;;;1.42;;
78732;SDS011;68056;52.530;5.454;2023-06-26T13:01:00;2.42;;;0.88;;
78732;SDS011;68056;52.530;5.454;2023-06-26T13:03:28;2.15;;;0.90;;
78732;SDS011;68056;52.530;5.454;2023-06-26T13:05:53;3.03;;;0.75;;
78732;SDS011;68056;52.530;5.454;2023-06-26T13:08:19;3.28;;;1.00;;
78732;SDS011;68056;52.530;5.454;2023-06-26T13:10:44;1.42;;;0.93;;
78732;SDS011;68056;52.530;5.454;2023-06-26T13:13:10;2.80;;;1.17;;
78732;SDS011;68056;52.530;5.454;2023-06-26T13:15:36;3.03;;;0.90;;
78732;SDS011;68056;52.530;5.454;2023-06-26T13:18:02;3.88;;;0.90;;
78732;SDS011;68056;52.530;5.454;2023-06-26T13:20:28;2.08;;;1.08;;
78732;SDS011;68056;52.530;5.454;2023-06-26T13:22:53;4.53;;;1.90;;
78732;SDS011;68056;52.530;5.454;2023-06-26T13:25:20;4.85;;;1.40;;
78732;SDS011;68056;52.530;5.454;2023-06-26T13:27:46;3.38;;;1.30;;
78732;SDS011;68056;52.530;5.454;2023-06-26T13:30:12;3.00;;;1.00;;
78732;SDS011;68056;52.530;5.454;2023-06-26T13:32:38;2.30;;;1.13;;
78732;SDS011;68056;52.530;5.454;2023-06-26T13:35:04;2.85;;;0.90;;
78732;SDS011;68056;52.530;5.454;2023-06-26T13:37:30;4.93;;;1.38;;
78732;SDS011;68056;52.530;5.454;2023-06-26T13:39:56;3.10;;;1.02;;
78732;SDS011;68056;52.530;5.454;2023-06-26T13:42:24;4.22;;;0.98;;
78732;SDS011;68056;52.530;5.454;2023-06-26T13:44:50;2.13;;;1.00;;
78732;SDS011;68056;52.530;5.454;2023-06-26T13:47:15;3.38;;;0.90;;
78732;SDS011;68056;52.530;5.454;2023-06-26T13:49:41;3.03;;;1.02;;
78732;SDS011;68056;52.530;5.454;2023-06-26T13:52:07;3.85;;;0.98;;
78732;SDS011;68056;52.530;5.454;2023-06-26T13:54:34;5.20;;;1.00;;
78732;SDS011;68056;52.530;5.454;2023-06-26T13:57:01;3.85;;;0.90;;
78732;SDS011;68056;52.530;5.454;2023-06-26T13:59:27;1.50;;;1.00;;
78732;SDS011;68056;52.530;5.454;2023-06-26T14:01:53;2.85;;;1.20;;
78732;SDS011;68056;52.530;5.454;2023-06-26T14:04:19;3.55;;;1.00;;
78732;SDS011;68056;52.530;5.454;2023-06-26T14:06:46;3.97;;;1.10;;
78732;SDS011;68056;52.530;5.454;2023-06-26T14:09:11;4.15;;;1.15;;
78732;SDS011;68056;52.530;5.454;2023-06-26T14:11:37;2.90;;;0.93;;
78732;SDS011;68056;52.530;5.454;2023-06-26T14:14:02;8.48;;;1.33;;
78732;SDS011;68056;52.530;5.454;2023-06-26T14:16:28;3.25;;;1.05;;
78732;SDS011;68056;52.530;5.454;2023-06-26T14:18:54;4.22;;;1.20;;
78732;SDS011;68056;52.530;5.454;2023-06-26T14:21:20;4.32;;;1.40;;
78732;SDS011;68056;52.530;5.454;2023-06-26T14:23:46;3.60;;;1.40;;
78732;SDS011;68056;52.530;5.454;2023-06-26T14:26:12;2.50;;;1.30;;
78732;SDS011;68056;52.530;5.454;2023-06-26T14:28:40;4.90;;;1.20;;
78732;SDS011;68056;52.530;5.454;2023-06-26T14:31:06;3.10;;;1.33;;
78732;SDS011;68056;52.530;5.454;2023-06-26T14:33:31;1.90;;;0.80;;
78732;SDS011;68056;52.530;5.454;2023-06-26T14:35:57;5.25;;;1.33;;
78732;SDS011;68056;52.530;5.454;2023-06-26T14:38:23;2.47;;;1.05;;
78732;SDS011;68056;52.530;5.454;2023-06-26T14:40:48;5.28;;;1.40;;
78732;SDS011;68056;52.530;5.454;2023-06-26T14:43:14;4.32;;;1.30;;
78732;SDS011;68056;52.530;5.454;2023-06-26T14:45:40;6.28;;;0.80;;
78732;SDS011;68056;52.530;5.454;2023-06-26T14:48:06;3.65;;;0.90;;
78732;SDS011;68056;52.530;5.454;2023-06-26T14:50:32;2.55;;;1.02;;
78732;SDS011;68056;52.530;5.454;2023-06-26T14:52:57;3.30;;;1.00;;
78732;SDS011;68056;52.530;5.454;2023-06-26T14:55:23;3.55;;;1.13;;
78732;SDS011;68056;52.530;5.454;2023-06-26T14:57:49;2.00;;;0.93;;
78732;SDS011;68056;52.530;5.454;2023-06-26T15:00:15;4.45;;;1.15;;
78732;SDS011;68056;52.530;5.454;2023-06-26T15:02:42;2.13;;;0.80;;
78732;SDS011;68056;52.530;5.454;2023-06-26T15:05:07;2.63;;;0.80;;
78732;SDS011;68056;52.530;5.454;2023-06-26T15:07:33;3.58;;;0.90;;
78732;SDS011;68056;52.530;5.454;2023-06-26T15:09:59;1.85;;;1.15;;
78732;SDS011;68056;52.530;5.454;2023-06-26T15:12:25;1.60;;;0.93;;
78732;SDS011;68056;52.530;5.454;2023-06-26T15:14:52;1.85;;;0.90;;
78732;SDS011;68056;52.530;5.454;2023-06-26T15:17:18;1.67;;;0.90;;
78732;SDS011;68056;52.530;5.454;2023-06-26T15:19:43;1.42;;;0.75;;
78732;SDS011;68056;52.530;5.454;2023-06-26T15:22:09;3.08;;;1.17;;
78732;SDS011;68056;52.530;5.454;2023-06-26T15:24:35;2.83;;;0.85;;